createdAt,value
2022-12-06T00:02:13.793Z,1.70
2022-12-06T00:04:40.609Z,1.70
2022-12-06T00:07:07.388Z,1.30
2022-12-06T00:09:34.316Z,1.23
2022-12-06T00:12:01.165Z,0.98
2022-12-06T00:14:28.177Z,0.73
2022-12-06T00:16:55.364Z,0.85
2022-12-06T00:19:23.907Z,0.77
2022-12-06T00:21:51.176Z,0.70
2022-12-06T00:24:20.733Z,0.82
2022-12-06T00:26:50.104Z,1.00
2022-12-06T00:29:20.238Z,0.98
2022-12-06T00:31:48.166Z,0.70
2022-12-06T00:34:15.100Z,0.30
2022-12-06T00:36:42.851Z,0.30
2022-12-06T00:39:13.823Z,0.20
2022-12-06T00:41:41.558Z,0.20
2022-12-06T00:44:09.288Z,0.10
2022-12-06T00:46:37.209Z,0.00
2022-12-06T00:49:06.660Z,0.00
2022-12-06T00:51:34.695Z,0.00
2022-12-06T00:54:01.767Z,0.00
2022-12-06T00:56:28.737Z,0.00
2022-12-06T00:58:55.677Z,0.00
2022-12-06T01:01:25.957Z,0.00
2022-12-06T01:03:56.432Z,0.00
2022-12-06T01:06:26.521Z,0.00
2022-12-06T01:08:54.038Z,0.00
2022-12-06T01:11:22.153Z,0.00
2022-12-06T01:13:49.740Z,0.00
2022-12-06T01:16:20.143Z,0.00
2022-12-06T01:18:47.246Z,0.00
2022-12-06T01:21:18.716Z,0.00
2022-12-06T01:23:47.045Z,0.00
2022-12-06T01:26:19.620Z,0.00
2022-12-06T01:28:47.332Z,0.00
2022-12-06T01:31:15.534Z,0.00
2022-12-06T01:33:43.657Z,0.00
2022-12-06T01:36:17.213Z,0.00
2022-12-06T01:38:44.109Z,0.00
2022-12-06T01:41:11.023Z,0.00
2022-12-06T01:43:43.309Z,0.00
2022-12-06T01:46:13.284Z,0.20
2022-12-06T01:48:41.961Z,0.00
2022-12-06T01:51:12.918Z,0.00
2022-12-06T01:53:42.315Z,0.00
2022-12-06T01:56:09.675Z,0.00
2022-12-06T01:58:39.895Z,0.00
2022-12-06T02:01:09.778Z,0.00
2022-12-06T02:03:37.076Z,0.00
2022-12-06T02:06:06.396Z,0.00
2022-12-06T02:08:34.365Z,0.00
2022-12-06T02:11:03.024Z,0.00
2022-12-06T02:13:32.219Z,0.00
2022-12-06T02:16:19.359Z,0.00
2022-12-06T02:19:21.391Z,0.00
2022-12-06T02:21:48.237Z,0.00
2022-12-06T02:24:27.066Z,0.00
2022-12-06T02:27:07.958Z,0.00
2022-12-06T02:30:04.715Z,0.00
2022-12-06T02:32:39.658Z,0.00
2022-12-06T02:35:40.359Z,0.00
2022-12-06T02:38:17.998Z,0.00
2022-12-06T02:40:57.670Z,0.00
2022-12-06T02:43:46.717Z,0.00
2022-12-06T02:46:16.345Z,0.00
2022-12-06T02:48:45.898Z,0.00
2022-12-06T02:51:17.065Z,0.00
2022-12-06T02:53:49.517Z,0.00
2022-12-06T02:56:18.489Z,0.00
2022-12-06T02:58:45.452Z,0.00
2022-12-06T03:01:20.731Z,0.00
2022-12-06T03:04:12.003Z,0.00
2022-12-06T03:06:57.073Z,0.00
2022-12-06T03:09:42.159Z,0.00
2022-12-06T03:12:09.004Z,0.00
2022-12-06T03:15:15.990Z,0.00
2022-12-06T03:18:04.466Z,0.00
2022-12-06T03:21:05.695Z,0.00
2022-12-06T03:23:42.336Z,0.00
2022-12-06T03:26:13.563Z,0.00
2022-12-06T03:28:42.685Z,0.00
2022-12-06T03:31:13.768Z,0.00
2022-12-06T03:33:51.682Z,0.00
2022-12-06T03:36:20.204Z,0.00
2022-12-06T03:39:00.223Z,0.00
2022-12-06T03:41:30.852Z,0.00
2022-12-06T03:43:59.714Z,0.00
2022-12-06T03:46:49.877Z,0.00
2022-12-06T03:49:24.768Z,0.00
2022-12-06T03:51:52.275Z,0.00
2022-12-06T03:54:19.315Z,0.00
2022-12-06T03:56:46.235Z,0.00
2022-12-06T03:59:13.022Z,0.00
2022-12-06T04:01:40.339Z,0.00
2022-12-06T04:04:07.381Z,0.00
2022-12-06T04:06:34.296Z,0.00
2022-12-06T04:09:01.348Z,0.00
2022-12-06T04:11:28.187Z,0.00
2022-12-06T04:13:55.015Z,0.00
2022-12-06T04:16:21.940Z,0.00
2022-12-06T04:18:48.787Z,0.00
2022-12-06T04:21:15.599Z,0.00
2022-12-06T04:23:44.867Z,0.00
2022-12-06T04:26:14.686Z,0.00
2022-12-06T04:28:42.000Z,0.00
2022-12-06T04:31:09.021Z,0.00
2022-12-06T04:33:35.770Z,0.00
2022-12-06T04:36:02.594Z,0.00
2022-12-06T04:38:29.310Z,0.00
2022-12-06T04:40:56.110Z,0.00
2022-12-06T04:43:22.958Z,0.00
2022-12-06T04:45:51.640Z,0.00
2022-12-06T04:48:18.432Z,0.00
2022-12-06T04:50:48.539Z,0.00
2022-12-06T04:53:15.626Z,0.00
2022-12-06T04:55:46.769Z,0.00
2022-12-06T04:58:15.027Z,0.00
2022-12-06T05:00:42.521Z,0.00
2022-12-06T05:03:11.111Z,0.00
2022-12-06T05:05:37.951Z,0.00
2022-12-06T05:08:05.254Z,0.00
2022-12-06T05:10:32.608Z,0.00
2022-12-06T05:13:00.385Z,0.00
2022-12-06T05:15:29.569Z,0.00
2022-12-06T05:17:56.362Z,0.00
2022-12-06T05:20:23.888Z,0.00
2022-12-06T05:22:50.778Z,0.00
2022-12-06T05:25:17.647Z,0.00
2022-12-06T05:27:44.455Z,0.00
2022-12-06T05:30:11.726Z,0.00
2022-12-06T05:32:39.705Z,0.00
2022-12-06T05:35:07.393Z,0.00
2022-12-06T05:37:34.158Z,0.00
2022-12-06T05:40:01.071Z,0.00
2022-12-06T05:42:28.237Z,0.00
2022-12-06T05:44:55.006Z,0.00
2022-12-06T05:47:21.747Z,0.00
2022-12-06T05:49:48.596Z,0.00
2022-12-06T05:52:15.400Z,0.00
2022-12-06T05:54:42.292Z,0.00
2022-12-06T05:57:09.038Z,0.00
2022-12-06T05:59:35.824Z,0.10
2022-12-06T06:02:02.710Z,0.20
2022-12-06T06:04:29.738Z,0.10
2022-12-06T06:06:56.458Z,0.03
2022-12-06T06:09:24.803Z,0.10
2022-12-06T06:11:51.540Z,0.07
2022-12-06T06:14:18.351Z,0.20
2022-12-06T06:16:45.113Z,0.10
2022-12-06T06:19:12.071Z,0.10
2022-12-06T06:21:38.859Z,0.10
2022-12-06T06:24:06.285Z,0.20
2022-12-06T06:26:33.039Z,0.77
2022-12-06T06:28:59.850Z,0.22
2022-12-06T06:31:26.646Z,0.40
2022-12-06T06:33:53.413Z,0.20
2022-12-06T06:36:20.275Z,0.13
2022-12-06T06:38:47.033Z,0.10
2022-12-06T06:41:13.833Z,0.17
2022-12-06T06:43:40.604Z,0.30
2022-12-06T06:46:07.975Z,0.10
2022-12-06T06:48:38.351Z,0.10
2022-12-06T06:51:07.200Z,0.20
2022-12-06T06:53:34.378Z,0.20
2022-12-06T06:56:01.203Z,0.20
2022-12-06T06:58:28.396Z,0.20
2022-12-06T07:00:58.315Z,0.30
2022-12-06T07:03:26.963Z,0.20
2022-12-06T07:05:53.743Z,0.15
2022-12-06T07:08:20.659Z,0.30
2022-12-06T07:10:47.666Z,0.20
2022-12-06T07:13:22.828Z,0.20
2022-12-06T07:15:49.658Z,0.10
2022-12-06T07:18:17.262Z,0.20
2022-12-06T07:20:45.742Z,0.20
2022-12-06T07:23:13.589Z,0.30
2022-12-06T07:25:40.437Z,0.20
2022-12-06T07:28:07.428Z,0.30
2022-12-06T07:30:34.326Z,0.30
2022-12-06T07:33:01.146Z,0.28
2022-12-06T07:35:48.374Z,0.75
2022-12-06T07:38:14.741Z,4.13
2022-12-06T07:41:03.511Z,0.52
2022-12-06T07:43:28.379Z,0.20
2022-12-06T07:45:55.697Z,0.50
2022-12-06T07:48:22.567Z,1.70
2022-12-06T07:50:50.273Z,0.50
2022-12-06T07:53:17.122Z,0.20
2022-12-06T07:55:44.062Z,0.30
2022-12-06T07:58:10.883Z,0.10
2022-12-06T08:00:37.714Z,0.28
2022-12-06T08:03:04.662Z,0.20
2022-12-06T08:05:31.447Z,0.20
2022-12-06T08:07:58.351Z,0.20
2022-12-06T08:10:25.152Z,0.20
2022-12-06T08:12:52.084Z,0.30
2022-12-06T08:15:18.831Z,0.30
2022-12-06T08:17:45.675Z,0.20
2022-12-06T08:20:12.997Z,0.30
2022-12-06T08:22:39.792Z,0.35
2022-12-06T08:25:07.207Z,0.20
2022-12-06T08:27:34.852Z,0.30
2022-12-06T08:30:01.825Z,0.30
2022-12-06T08:32:28.945Z,0.30
2022-12-06T08:34:55.727Z,0.15
2022-12-06T08:37:22.617Z,0.10
2022-12-06T08:39:49.407Z,0.27
2022-12-06T08:42:18.443Z,0.20
2022-12-06T08:44:49.106Z,0.13
2022-12-06T08:47:15.965Z,0.10
2022-12-06T08:49:42.749Z,0.10
2022-12-06T08:52:09.548Z,0.10
2022-12-06T08:54:36.371Z,0.10
2022-12-06T08:57:03.345Z,0.17
2022-12-06T08:59:30.175Z,0.13
2022-12-06T09:01:56.988Z,0.20
2022-12-06T09:04:24.197Z,0.47
2022-12-06T09:06:51.169Z,0.43
2022-12-06T09:09:18.776Z,0.40
2022-12-06T09:11:46.114Z,0.75
2022-12-06T09:14:21.021Z,0.60
2022-12-06T09:16:50.931Z,0.57
2022-12-06T09:19:18.851Z,0.50
2022-12-06T09:21:45.672Z,0.70
2022-12-06T09:24:14.891Z,0.68
2022-12-06T09:26:42.099Z,0.25
2022-12-06T09:29:10.054Z,0.40
2022-12-06T09:31:37.076Z,0.40
2022-12-06T09:34:05.253Z,0.30
2022-12-06T09:36:32.102Z,0.40
2022-12-06T09:39:05.616Z,0.30
2022-12-06T09:41:54.016Z,0.17
2022-12-06T09:44:55.920Z,0.15
2022-12-06T09:47:41.025Z,0.40
2022-12-06T09:50:38.740Z,0.25
2022-12-06T09:53:16.346Z,0.40
2022-12-06T09:56:10.549Z,0.57
2022-12-06T09:58:40.324Z,0.57
2022-12-06T10:01:16.007Z,0.70
2022-12-06T10:03:42.749Z,0.80
2022-12-06T10:06:14.020Z,0.40
2022-12-06T10:09:17.370Z,0.67
2022-12-06T10:11:59.162Z,0.88
2022-12-06T10:14:59.723Z,0.80
2022-12-06T10:17:52.130Z,1.10
2022-12-06T10:21:05.687Z,1.05
2022-12-06T10:24:10.743Z,1.10
2022-12-06T10:26:46.697Z,1.17
2022-12-06T10:29:45.625Z,1.30
2022-12-06T10:32:19.298Z,1.60
2022-12-06T10:34:54.894Z,1.70
2022-12-06T10:37:36.850Z,2.30
2022-12-06T10:40:26.692Z,2.05
2022-12-06T10:43:04.416Z,2.78
2022-12-06T10:45:42.061Z,2.72
2022-12-06T10:48:25.919Z,3.20
2022-12-06T10:51:01.567Z,3.00
2022-12-06T10:53:35.556Z,3.25
2022-12-06T10:56:09.838Z,3.80
2022-12-06T10:58:44.981Z,3.50
2022-12-06T11:01:21.141Z,3.75
2022-12-06T11:03:53.775Z,3.37
2022-12-06T11:06:34.551Z,3.65
2022-12-06T11:09:16.480Z,3.50
2022-12-06T11:11:44.581Z,3.65
2022-12-06T11:14:22.752Z,3.35
2022-12-06T11:16:58.325Z,3.20
2022-12-06T11:19:30.745Z,3.25
2022-12-06T11:22:06.274Z,3.53
2022-12-06T11:24:47.590Z,3.20
2022-12-06T11:27:23.807Z,2.67
2022-12-06T11:29:51.258Z,3.03
2022-12-06T11:32:19.215Z,3.35
2022-12-06T11:34:49.668Z,2.92
2022-12-06T11:37:19.318Z,3.05
2022-12-06T11:39:48.105Z,2.85
2022-12-06T11:42:25.458Z,2.60
2022-12-06T11:44:57.550Z,3.10
2022-12-06T11:47:24.909Z,2.80
2022-12-06T11:49:54.218Z,2.72
2022-12-06T11:52:43.605Z,3.10
2022-12-06T11:55:27.812Z,2.77
2022-12-06T11:58:13.681Z,2.15
2022-12-06T12:00:56.653Z,2.42
2022-12-06T12:03:33.329Z,2.38
2022-12-06T12:06:25.389Z,2.22
2022-12-06T12:09:01.721Z,2.20
2022-12-06T12:11:32.747Z,2.47
2022-12-06T12:14:07.777Z,2.63
2022-12-06T12:16:44.219Z,2.30
2022-12-06T12:19:38.086Z,2.42
2022-12-06T12:22:28.514Z,2.30
2022-12-06T12:27:56.983Z,2.60
2022-12-06T12:30:32.858Z,2.60
2022-12-06T12:33:05.885Z,2.85
2022-12-06T12:35:33.867Z,2.67
2022-12-06T12:38:04.721Z,2.65
2022-12-06T12:40:36.122Z,2.58
2022-12-06T12:43:15.495Z,2.88
2022-12-06T12:46:05.271Z,2.40
2022-12-06T12:48:32.675Z,2.67
2022-12-06T12:51:03.506Z,2.83
2022-12-06T12:53:33.187Z,2.35
2022-12-06T12:56:08.641Z,1.95
2022-12-06T12:58:36.321Z,2.30
2022-12-06T13:01:14.359Z,1.90
2022-12-06T13:03:51.150Z,1.90
2022-12-06T13:06:29.538Z,1.98
2022-12-06T13:09:01.078Z,1.80
2022-12-06T13:11:29.123Z,2.28
2022-12-06T13:13:58.307Z,2.20
2022-12-06T13:16:32.592Z,2.35
2022-12-06T13:19:00.184Z,2.20
2022-12-06T13:21:37.436Z,2.70
2022-12-06T13:24:10.350Z,2.90
2022-12-06T13:26:44.495Z,2.30
2022-12-06T13:29:24.769Z,2.58
2022-12-06T13:31:53.635Z,2.40
2022-12-06T13:34:49.427Z,2.75
2022-12-06T13:37:29.946Z,2.40
2022-12-06T13:39:57.034Z,2.87
2022-12-06T13:42:38.862Z,2.72
2022-12-06T13:45:26.339Z,2.85
2022-12-06T13:47:53.119Z,2.70
2022-12-06T13:50:19.807Z,2.70
2022-12-06T13:52:46.598Z,2.60
2022-12-06T13:55:25.395Z,2.67
2022-12-06T13:57:57.250Z,2.47
2022-12-06T14:00:30.165Z,2.92
2022-12-06T14:03:20.977Z,3.00
2022-12-06T14:06:14.902Z,2.80
2022-12-06T14:08:52.729Z,2.50
2022-12-06T14:11:26.500Z,2.42
2022-12-06T14:13:56.025Z,2.58
2022-12-06T14:16:30.696Z,2.90
2022-12-06T14:18:58.512Z,2.80
2022-12-06T14:21:35.958Z,2.47
2022-12-06T14:24:03.325Z,2.95
2022-12-06T14:26:33.697Z,3.00
2022-12-06T14:29:01.978Z,2.65
2022-12-06T14:31:37.217Z,2.33
2022-12-06T14:34:04.894Z,2.60
2022-12-06T14:36:39.596Z,2.25
2022-12-06T14:39:18.630Z,2.70
2022-12-06T14:42:04.144Z,2.92
2022-12-06T14:44:32.356Z,2.53
2022-12-06T14:46:59.884Z,2.55
2022-12-06T14:49:28.309Z,2.53
2022-12-06T14:51:55.095Z,2.30
2022-12-06T14:54:27.815Z,2.67
2022-12-06T14:56:54.708Z,2.13
2022-12-06T14:59:47.278Z,2.67
2022-12-06T15:02:25.934Z,2.45
2022-12-06T15:04:52.881Z,2.38
2022-12-06T15:07:38.111Z,2.00
2022-12-06T15:10:17.898Z,2.67
2022-12-06T15:12:44.674Z,2.05
2022-12-06T15:15:40.888Z,2.22
2022-12-06T15:18:12.553Z,2.30
2022-12-06T15:20:39.757Z,2.20
2022-12-06T15:23:52.251Z,2.10
2022-12-06T15:26:20.615Z,2.30
2022-12-06T15:28:48.264Z,2.25
2022-12-06T15:31:19.503Z,2.15
2022-12-06T15:33:47.374Z,2.13
2022-12-06T15:36:22.589Z,2.10
2022-12-06T15:38:49.774Z,1.75
2022-12-06T15:41:25.967Z,2.20
2022-12-06T15:43:53.856Z,1.77
2022-12-06T15:46:27.239Z,1.92
2022-12-06T15:48:54.849Z,2.60
2022-12-06T15:51:24.038Z,1.90
2022-12-06T15:53:51.326Z,1.80
2022-12-06T15:56:21.132Z,1.90
2022-12-06T15:58:48.562Z,1.80
2022-12-06T16:01:28.993Z,2.27
2022-12-06T16:03:56.692Z,1.70
2022-12-06T16:06:26.331Z,2.10
2022-12-06T16:08:53.650Z,2.08
2022-12-06T16:11:26.006Z,1.75
2022-12-06T16:13:53.042Z,1.67
2022-12-06T16:16:21.028Z,1.80
2022-12-06T16:18:48.452Z,1.55
2022-12-06T16:21:27.623Z,1.92
2022-12-06T16:24:13.396Z,1.70
2022-12-06T16:26:42.033Z,1.80
2022-12-06T16:29:13.245Z,1.77
2022-12-06T16:31:40.351Z,1.60
2022-12-06T16:34:07.955Z,1.90
2022-12-06T16:36:56.377Z,2.20
2022-12-06T16:39:23.763Z,1.70
2022-12-06T16:41:50.938Z,1.70
2022-12-06T16:44:18.157Z,1.50
2022-12-06T16:46:45.597Z,1.60
2022-12-06T16:52:05.852Z,1.43
2022-12-06T16:54:33.426Z,1.38
2022-12-06T16:57:00.379Z,1.23
2022-12-06T16:59:27.741Z,1.40
2022-12-06T17:01:56.141Z,1.20
2022-12-06T17:04:23.664Z,1.40
2022-12-06T17:06:51.318Z,1.70
2022-12-06T17:09:21.632Z,1.63
2022-12-06T17:11:49.138Z,1.20
2022-12-06T17:14:18.291Z,1.25
2022-12-06T17:16:47.948Z,1.40
2022-12-06T17:19:18.026Z,1.40
2022-12-06T17:21:50.014Z,1.60
2022-12-06T17:24:20.041Z,1.20
2022-12-06T17:26:48.348Z,1.10
2022-12-06T17:29:16.206Z,1.30
2022-12-06T17:31:43.590Z,1.30
2022-12-06T17:34:13.757Z,1.40
2022-12-06T17:36:43.588Z,1.40
2022-12-06T17:39:14.688Z,1.35
2022-12-06T17:41:45.776Z,1.93
2022-12-06T17:44:17.462Z,1.48
2022-12-06T17:46:44.638Z,1.30
2022-12-06T17:49:20.422Z,1.20
2022-12-06T17:51:48.682Z,1.30
2022-12-06T17:54:19.301Z,1.30
2022-12-06T17:56:50.248Z,1.55
2022-12-06T17:59:22.939Z,1.52
2022-12-06T18:04:38.400Z,2.13
2022-12-06T18:07:06.235Z,4.70
2022-12-06T18:09:34.116Z,6.10
2022-12-06T18:12:02.394Z,6.25
2022-12-06T18:14:31.607Z,5.40
2022-12-06T18:16:59.043Z,4.45
2022-12-06T18:19:26.752Z,4.30
2022-12-06T18:21:54.374Z,3.97
2022-12-06T18:24:23.804Z,3.80
2022-12-06T18:26:54.352Z,4.45
2022-12-06T18:29:23.833Z,5.40
2022-12-06T18:31:52.720Z,7.90
2022-12-06T18:34:20.436Z,12.80
2022-12-06T18:36:48.009Z,13.18
2022-12-06T18:39:17.353Z,10.57
2022-12-06T18:41:45.253Z,9.68
2022-12-06T18:44:13.610Z,7.00
2022-12-06T18:46:42.946Z,5.75
2022-12-06T18:49:12.599Z,5.07
2022-12-06T18:51:41.438Z,4.35
2022-12-06T18:54:10.531Z,4.47
2022-12-06T18:56:38.026Z,3.23
2022-12-06T18:59:07.271Z,3.03
2022-12-06T19:01:38.013Z,2.53
2022-12-06T19:04:07.265Z,2.92
2022-12-06T19:06:37.358Z,2.42
2022-12-06T19:09:08.480Z,2.57
2022-12-06T19:11:39.054Z,1.90
2022-12-06T19:14:07.029Z,2.00
2022-12-06T19:16:36.784Z,2.05
2022-12-06T19:19:11.308Z,2.00
2022-12-06T19:21:42.103Z,2.10
2022-12-06T19:24:11.140Z,1.60
2022-12-06T19:26:38.872Z,2.00
2022-12-06T19:29:06.964Z,1.40
2022-12-06T19:31:36.710Z,1.27
2022-12-06T19:34:06.346Z,1.27
2022-12-06T19:36:34.024Z,1.20
2022-12-06T19:39:05.631Z,1.50
2022-12-06T19:41:34.903Z,1.20
2022-12-06T19:44:03.070Z,1.30
2022-12-06T19:46:32.193Z,1.50
2022-12-06T19:49:03.385Z,1.40
2022-12-06T19:51:31.360Z,1.50
2022-12-06T19:54:01.945Z,1.50
2022-12-06T19:56:30.565Z,1.35
2022-12-06T19:59:03.706Z,1.30
2022-12-06T20:01:32.411Z,1.05
2022-12-06T20:04:00.253Z,0.93
2022-12-06T20:06:28.577Z,0.70
2022-12-06T20:08:59.195Z,0.80
2022-12-06T20:11:28.695Z,0.97
2022-12-06T20:13:59.617Z,0.80
2022-12-06T20:16:27.435Z,1.10
2022-12-06T20:18:56.116Z,0.80
2022-12-06T20:21:24.435Z,0.80
2022-12-06T20:23:52.782Z,1.10
2022-12-06T20:26:20.891Z,1.05
2022-12-06T20:28:49.078Z,1.05
2022-12-06T20:31:24.140Z,0.95
2022-12-06T20:33:53.055Z,1.38
2022-12-06T20:36:22.717Z,1.00
2022-12-06T20:38:55.491Z,0.90
2022-12-06T20:41:26.379Z,1.10
2022-12-06T20:43:56.819Z,1.20
2022-12-06T20:46:30.626Z,1.30
2022-12-06T20:49:00.673Z,1.80
2022-12-06T20:51:31.780Z,1.48
2022-12-06T20:54:03.264Z,1.60
2022-12-06T20:56:39.941Z,1.80
2022-12-06T20:59:09.180Z,1.42
2022-12-06T21:01:40.204Z,2.10
2022-12-06T21:04:09.445Z,1.98
2022-12-06T21:06:38.363Z,1.60
2022-12-06T21:09:05.632Z,1.85
2022-12-06T21:11:32.738Z,1.88
2022-12-06T21:14:00.039Z,2.07
2022-12-06T21:16:29.871Z,1.80
2022-12-06T21:19:06.276Z,1.75
2022-12-06T21:21:35.584Z,1.80
2022-12-06T21:24:08.351Z,1.67
2022-12-06T21:26:36.160Z,1.90
2022-12-06T21:29:04.133Z,1.88
2022-12-06T21:31:34.166Z,2.17
2022-12-06T21:34:01.255Z,2.10
2022-12-06T21:36:28.402Z,1.65
2022-12-06T21:38:55.736Z,2.10
2022-12-06T21:41:22.918Z,1.60
2022-12-06T21:43:50.426Z,1.90
2022-12-06T21:46:19.919Z,1.83
2022-12-06T21:49:04.642Z,2.30
2022-12-06T21:51:33.074Z,2.27
2022-12-06T21:54:00.514Z,2.25
2022-12-06T21:56:30.437Z,2.25
2022-12-06T21:58:57.828Z,2.28
2022-12-06T22:01:26.548Z,2.05
2022-12-06T22:03:55.173Z,2.20
2022-12-06T22:06:22.279Z,1.88
2022-12-06T22:08:55.055Z,2.00
2022-12-06T22:11:21.825Z,1.88
2022-12-06T22:13:48.616Z,1.60
2022-12-06T22:16:17.014Z,1.80
2022-12-06T22:18:46.331Z,1.48
2022-12-06T22:21:17.044Z,1.70
2022-12-06T22:23:44.491Z,1.70
2022-12-06T22:26:16.228Z,2.20
2022-12-06T22:28:43.510Z,1.50
2022-12-06T22:31:14.650Z,1.30
2022-12-06T22:33:42.052Z,1.42
2022-12-06T22:36:10.469Z,2.03
2022-12-06T22:38:37.677Z,1.80
2022-12-06T22:41:05.858Z,1.90
2022-12-06T22:43:33.571Z,1.80
2022-12-06T22:46:10.547Z,1.90
2022-12-06T22:48:38.190Z,1.90
2022-12-06T22:51:14.495Z,1.80
2022-12-06T22:53:43.620Z,2.37
2022-12-06T22:56:11.433Z,2.08
2022-12-06T22:58:39.655Z,2.10
2022-12-06T23:01:15.872Z,2.00
2022-12-06T23:03:48.231Z,1.90
2022-12-06T23:06:16.525Z,1.70
2022-12-06T23:08:43.837Z,1.92
2022-12-06T23:11:32.984Z,1.95
2022-12-06T23:13:59.897Z,1.90
2022-12-06T23:16:29.061Z,1.70
2022-12-06T23:18:57.216Z,1.80
2022-12-06T23:21:28.897Z,2.05
2022-12-06T23:23:58.637Z,1.98
2022-12-06T23:26:34.289Z,1.85
2022-12-06T23:29:01.386Z,2.25
2022-12-06T23:31:30.963Z,2.20
2022-12-06T23:34:05.757Z,1.88
2022-12-06T23:36:34.856Z,1.90
2022-12-06T23:39:03.032Z,1.90
2022-12-06T23:41:31.786Z,1.80
2022-12-06T23:43:59.319Z,1.80
2022-12-06T23:46:29.701Z,2.00
2022-12-06T23:48:57.536Z,1.60
2022-12-06T23:51:29.238Z,2.10
2022-12-06T23:53:57.897Z,1.83
2022-12-06T23:56:27.133Z,1.93
2022-12-06T23:58:54.627Z,2.08
